SAS405 EHAM-EKYT
Flight info
| Callsign | SAS405 |
|---|---|
| Flight time | 0h 59m |
| Altitude | 41000 |
| Route | ANDIK N873 KEKIX Z708 AGISU DCT TUSKA DCT GIPUG |
| Aircraft | A359/H-SDE2E3GHIJ3J4J5LM1ORWXY/LB1D1 |
Departure
| Time | 2026-04-28 15:30 |
|---|---|
| Airport | Amsterdam Airport Schiphol (EHAM) |
Arrival
| Time | 2026-04-28 16:29 |
|---|---|
| Airport | Aalborg Airport (EKYT) |
| Time | Latitude | Longitude | Altitude | Speed | Heading |
|---|---|---|---|---|---|
| 2026-04-28 14:56 | 52.31011 | 4.77241 | 12 ft | 0 kts | 182° |
| 2026-04-28 14:56 | 52.31005 | 4.77239 | 12 ft | 0 kts | 182° |
| 2026-04-28 15:12 | 52.30988 | 4.77238 | 12 ft | 0 kts | 182° |
| 2026-04-28 15:12 | 52.30988 | 4.77237 | 12 ft | 0 kts | 182° |
| 2026-04-28 15:12 | 52.30988 | 4.77236 | 12 ft | 0 kts | 182° |
| 2026-04-28 15:13 | 52.30988 | 4.77234 | 12 ft | 0 kts | 182° |
| 2026-04-28 15:13 | 52.30988 | 4.77233 | 12 ft | 0 kts | 182° |
| 2026-04-28 15:13 | 52.30988 | 4.77232 | 12 ft | 0 kts | 182° |
| 2026-04-28 15:13 | 52.30988 | 4.77231 | 12 ft | 0 kts | 182° |
| 2026-04-28 15:14 | 52.30994 | 4.77232 | 12 ft | 4 kts | 182° |
| 2026-04-28 15:14 | 52.31021 | 4.77232 | 13 ft | 4 kts | 177° |
| 2026-04-28 15:15 | 52.31048 | 4.77231 | 13 ft | 4 kts | 185° |
| 2026-04-28 15:15 | 52.31068 | 4.77241 | 15 ft | 3 kts | 250° |
| 2026-04-28 15:15 | 52.31074 | 4.77279 | 15 ft | 4 kts | 261° |
| 2026-04-28 15:15 | 52.31076 | 4.77296 | 15 ft | 4 kts | 258° |
| 2026-04-28 15:16 | 52.31074 | 4.77280 | 14 ft | 0 kts | 258° |
| 2026-04-28 15:21 | 52.31074 | 4.77267 | 16 ft | 3 kts | 270° |
| 2026-04-28 15:21 | 52.31075 | 4.77194 | 11 ft | 10 kts | 274° |
| 2026-04-28 15:21 | 52.31081 | 4.77044 | 7 ft | 10 kts | 276° |
| 2026-04-28 15:21 | 52.31119 | 4.76943 | 4 ft | 11 kts | 347° |
| 2026-04-28 15:22 | 52.31191 | 4.76991 | 6 ft | 11 kts | 27° |
| 2026-04-28 15:22 | 52.31260 | 4.77057 | 8 ft | 12 kts | 33° |
| 2026-04-28 15:22 | 52.31333 | 4.77137 | 10 ft | 13 kts | 35° |
| 2026-04-28 15:22 | 52.31408 | 4.77191 | 12 ft | 11 kts | 3° |
| 2026-04-28 15:23 | 52.31491 | 4.77198 | 13 ft | 13 kts | 3° |
| 2026-04-28 15:23 | 52.31567 | 4.77156 | 15 ft | 11 kts | 297° |
| 2026-04-28 15:23 | 52.31568 | 4.77027 | 18 ft | 13 kts | 266° |
| 2026-04-28 15:23 | 52.31561 | 4.76867 | 19 ft | 16 kts | 267° |
| 2026-04-28 15:24 | 52.31555 | 4.76664 | 19 ft | 20 kts | 267° |
| 2026-04-28 15:24 | 52.31547 | 4.76410 | 29 ft | 24 kts | 267° |
| 2026-04-28 15:24 | 52.31541 | 4.76199 | 23 ft | 15 kts | 267° |
| 2026-04-28 15:24 | 52.31535 | 4.76014 | 24 ft | 18 kts | 266° |
| 2026-04-28 15:25 | 52.31526 | 4.75772 | 19 ft | 25 kts | 266° |
| 2026-04-28 15:25 | 52.31516 | 4.75473 | 21 ft | 28 kts | 267° |
| 2026-04-28 15:25 | 52.31505 | 4.75147 | 18 ft | 24 kts | 267° |
| 2026-04-28 15:25 | 52.31496 | 4.74905 | 23 ft | 12 kts | 267° |
| 2026-04-28 15:26 | 52.31492 | 4.74762 | 24 ft | 10 kts | 268° |
| 2026-04-28 15:26 | 52.31524 | 4.74675 | 25 ft | 8 kts | 339° |
| 2026-04-28 15:26 | 52.31539 | 4.74670 | 28 ft | 0 kts | 350° |
| 2026-04-28 15:27 | 52.31540 | 4.74670 | 28 ft | 0 kts | 350° |
| 2026-04-28 15:27 | 52.31581 | 4.74662 | 26 ft | 10 kts | 357° |
| 2026-04-28 15:28 | 52.31652 | 4.74661 | 29 ft | 9 kts | 9° |
| 2026-04-28 15:28 | 52.31666 | 4.74688 | 31 ft | 0 kts | 85° |
| 2026-04-28 15:29 | 52.31667 | 4.74693 | 31 ft | 4 kts | 85° |
| 2026-04-28 15:29 | 52.31683 | 4.75103 | 20 ft | 77 kts | 86° |
| 2026-04-28 15:29 | 52.31734 | 4.76408 | 36 ft | 146 kts | 81° |
| 2026-04-28 15:30 | 52.31778 | 4.78037 | 933 ft | 141 kts | 84° |
| 2026-04-28 15:30 | 52.31804 | 4.79622 | 1901 ft | 142 kts | 83° |
| 2026-04-28 15:30 | 52.31898 | 4.81374 | 2389 ft | 169 kts | 81° |
| 2026-04-28 15:30 | 52.32048 | 4.83457 | 2787 ft | 199 kts | 81° |
| 2026-04-28 15:31 | 52.32247 | 4.85859 | 3281 ft | 225 kts | 80° |
| 2026-04-28 15:31 | 52.32402 | 4.88459 | 4082 ft | 234 kts | 89° |
| 2026-04-28 15:31 | 52.32343 | 4.91165 | 4970 ft | 242 kts | 92° |
| 2026-04-28 15:31 | 52.32262 | 4.93965 | 5721 ft | 247 kts | 92° |
| 2026-04-28 15:32 | 52.32186 | 4.96774 | 6580 ft | 247 kts | 92° |
| 2026-04-28 15:32 | 52.32133 | 4.98628 | 7241 ft | 249 kts | 92° |
| 2026-04-28 15:32 | 52.32021 | 5.02445 | 8476 ft | 258 kts | 92° |
| 2026-04-28 15:32 | 52.31934 | 5.05431 | 9315 ft | 259 kts | 92° |
| 2026-04-28 15:33 | 52.32125 | 5.08316 | 10068 ft | 261 kts | 72° |
| 2026-04-28 15:33 | 52.33087 | 5.10876 | 10559 ft | 276 kts | 47° |
| 2026-04-28 15:33 | 52.34750 | 5.12659 | 10818 ft | 298 kts | 26° |
| 2026-04-28 15:33 | 52.36745 | 5.13863 | 11159 ft | 314 kts | 20° |
| 2026-04-28 15:34 | 52.38899 | 5.14854 | 11511 ft | 328 kts | 17° |
| 2026-04-28 15:34 | 52.41170 | 5.15777 | 11875 ft | 339 kts | 16° |
| 2026-04-28 15:34 | 52.43466 | 5.16632 | 12474 ft | 341 kts | 15° |
| 2026-04-28 15:34 | 52.45795 | 5.17532 | 12987 ft | 345 kts | 18° |
| 2026-04-28 15:35 | 52.48035 | 5.19023 | 13500 ft | 347 kts | 28° |
| 2026-04-28 15:35 | 52.52280 | 5.22855 | 14485 ft | 353 kts | 33° |
| 2026-04-28 15:35 | 52.54384 | 5.24965 | 15044 ft | 353 kts | 34° |
| 2026-04-28 15:36 | 52.56450 | 5.27080 | 15508 ft | 358 kts | 33° |
| 2026-04-28 15:36 | 52.58582 | 5.29260 | 15958 ft | 361 kts | 34° |
| 2026-04-28 15:36 | 52.60716 | 5.31430 | 16525 ft | 362 kts | 33° |
| 2026-04-28 15:36 | 52.62879 | 5.33615 | 16949 ft | 367 kts | 33° |
| 2026-04-28 15:37 | 52.65057 | 5.35804 | 17561 ft | 366 kts | 33° |
| 2026-04-28 15:37 | 52.67243 | 5.37998 | 18057 ft | 370 kts | 32° |
| 2026-04-28 15:37 | 52.69447 | 5.40207 | 18582 ft | 370 kts | 33° |
| 2026-04-28 15:37 | 52.70900 | 5.41666 | 18932 ft | 370 kts | 33° |
| 2026-04-28 15:38 | 52.73876 | 5.44659 | 19377 ft | 377 kts | 33° |
| 2026-04-28 15:38 | 52.76116 | 5.46915 | 19926 ft | 376 kts | 33° |
| 2026-04-28 15:38 | 52.78360 | 5.49178 | 20264 ft | 381 kts | 33° |
| 2026-04-28 15:38 | 52.80626 | 5.51466 | 20789 ft | 380 kts | 33° |
| 2026-04-28 15:39 | 52.82863 | 5.53729 | 21163 ft | 383 kts | 33° |
| 2026-04-28 15:39 | 52.85143 | 5.56040 | 21632 ft | 384 kts | 33° |
| 2026-04-28 15:39 | 52.87462 | 5.58394 | 22005 ft | 389 kts | 32° |
| 2026-04-28 15:39 | 52.89744 | 5.60712 | 22456 ft | 388 kts | 32° |
| 2026-04-28 15:40 | 52.92040 | 5.63045 | 23008 ft | 387 kts | 32° |
| 2026-04-28 15:40 | 52.94358 | 5.65403 | 23320 ft | 392 kts | 32° |
| 2026-04-28 15:40 | 52.96679 | 5.67768 | 23771 ft | 392 kts | 32° |
| 2026-04-28 15:40 | 52.99013 | 5.70149 | 24082 ft | 396 kts | 32° |
| 2026-04-28 15:41 | 53.01363 | 5.72550 | 24473 ft | 396 kts | 32° |
| 2026-04-28 15:41 | 53.03711 | 5.74953 | 24826 ft | 398 kts | 32° |
| 2026-04-28 15:41 | 53.06081 | 5.77381 | 25194 ft | 400 kts | 33° |
| 2026-04-28 15:41 | 53.08447 | 5.79809 | 25609 ft | 400 kts | 33° |
| 2026-04-28 15:42 | 53.10824 | 5.82250 | 26036 ft | 401 kts | 33° |
| 2026-04-28 15:42 | 53.13186 | 5.84679 | 26586 ft | 398 kts | 33° |
| 2026-04-28 15:42 | 53.15537 | 5.87100 | 27124 ft | 397 kts | 33° |
| 2026-04-28 15:42 | 53.17884 | 5.89521 | 27574 ft | 398 kts | 33° |
| 2026-04-28 15:43 | 53.20216 | 5.91929 | 28049 ft | 400 kts | 33° |
| 2026-04-28 15:43 | 53.22588 | 5.94383 | 28536 ft | 401 kts | 34° |
| 2026-04-28 15:43 | 53.24959 | 5.96838 | 29048 ft | 402 kts | 34° |
| 2026-04-28 15:43 | 53.27346 | 5.99312 | 29539 ft | 404 kts | 34° |
| 2026-04-28 15:44 | 53.29733 | 6.01791 | 30068 ft | 405 kts | 34° |
| 2026-04-28 15:44 | 53.32134 | 6.04287 | 30559 ft | 407 kts | 34° |
| 2026-04-28 15:44 | 53.34551 | 6.06803 | 30965 ft | 410 kts | 34° |
| 2026-04-28 15:44 | 53.36977 | 6.09332 | 31335 ft | 413 kts | 34° |
| 2026-04-28 15:45 | 53.39432 | 6.11895 | 31729 ft | 415 kts | 34° |
| 2026-04-28 15:45 | 53.41861 | 6.14434 | 32084 ft | 418 kts | 34° |
| 2026-04-28 15:45 | 53.44332 | 6.17019 | 32448 ft | 420 kts | 34° |
| 2026-04-28 15:45 | 53.46826 | 6.19633 | 32796 ft | 423 kts | 34° |
| 2026-04-28 15:46 | 53.49335 | 6.22267 | 33112 ft | 427 kts | 33° |
| 2026-04-28 15:46 | 53.51853 | 6.24914 | 33407 ft | 429 kts | 33° |
| 2026-04-28 15:46 | 53.54395 | 6.27589 | 33735 ft | 432 kts | 33° |
| 2026-04-28 15:46 | 53.56953 | 6.30284 | 34132 ft | 432 kts | 33° |
| 2026-04-28 15:47 | 53.59493 | 6.32964 | 34660 ft | 428 kts | 33° |
| 2026-04-28 15:47 | 53.62008 | 6.35621 | 35006 ft | 429 kts | 33° |
| 2026-04-28 15:47 | 53.64552 | 6.38314 | 35207 ft | 433 kts | 33° |
| 2026-04-28 15:47 | 53.67112 | 6.41027 | 35477 ft | 435 kts | 33° |
| 2026-04-28 15:48 | 53.69677 | 6.43751 | 35759 ft | 436 kts | 33° |
| 2026-04-28 15:48 | 53.72255 | 6.46492 | 36036 ft | 438 kts | 33° |
| 2026-04-28 15:48 | 53.74810 | 6.49212 | 36304 ft | 440 kts | 33° |
| 2026-04-28 15:48 | 53.77407 | 6.51981 | 36586 ft | 442 kts | 33° |
| 2026-04-28 15:49 | 53.80024 | 6.54775 | 36843 ft | 444 kts | 33° |
| 2026-04-28 15:49 | 53.82633 | 6.57566 | 37128 ft | 445 kts | 32° |
| 2026-04-28 15:49 | 53.85247 | 6.60366 | 37555 ft | 443 kts | 32° |
| 2026-04-28 15:49 | 53.87861 | 6.63170 | 37826 ft | 445 kts | 32° |
| 2026-04-28 15:50 | 53.90482 | 6.65985 | 38093 ft | 447 kts | 32° |
| 2026-04-28 15:50 | 53.93117 | 6.68821 | 38360 ft | 448 kts | 32° |
| 2026-04-28 15:50 | 53.95752 | 6.71660 | 38633 ft | 450 kts | 32° |
| 2026-04-28 15:50 | 53.98399 | 6.74516 | 38892 ft | 451 kts | 32° |
| 2026-04-28 15:51 | 54.01051 | 6.77383 | 39130 ft | 452 kts | 32° |
| 2026-04-28 15:51 | 54.03710 | 6.80261 | 39331 ft | 453 kts | 32° |
| 2026-04-28 15:51 | 54.06374 | 6.83150 | 39579 ft | 453 kts | 32° |
| 2026-04-28 15:51 | 54.08982 | 6.85982 | 39936 ft | 450 kts | 32° |
| 2026-04-28 15:52 | 54.11628 | 6.88861 | 40156 ft | 451 kts | 32° |
| 2026-04-28 15:52 | 54.14277 | 6.91745 | 40285 ft | 453 kts | 32° |
| 2026-04-28 15:52 | 54.16939 | 6.94648 | 40463 ft | 454 kts | 32° |
| 2026-04-28 15:52 | 54.19607 | 6.97563 | 40654 ft | 455 kts | 32° |
| 2026-04-28 15:53 | 54.21387 | 6.99510 | 40781 ft | 455 kts | 32° |
| 2026-04-28 15:53 | 54.24047 | 7.02424 | 40956 ft | 456 kts | 32° |
| 2026-04-28 15:53 | 54.26724 | 7.05361 | 41131 ft | 457 kts | 32° |
| 2026-04-28 15:53 | 54.30276 | 7.09265 | 41348 ft | 458 kts | 32° |
| 2026-04-28 15:54 | 54.34764 | 7.14211 | 41411 ft | 457 kts | 32° |
| 2026-04-28 15:54 | 54.40098 | 7.20104 | 41411 ft | 456 kts | 32° |
| 2026-04-28 15:55 | 54.45426 | 7.26010 | 41415 ft | 456 kts | 32° |
| 2026-04-28 15:55 | 54.50724 | 7.31900 | 41411 ft | 456 kts | 32° |
| 2026-04-28 15:56 | 54.56047 | 7.37838 | 41414 ft | 455 kts | 32° |
| 2026-04-28 15:56 | 54.61354 | 7.43776 | 41414 ft | 454 kts | 32° |
| 2026-04-28 15:57 | 54.66656 | 7.49727 | 41417 ft | 454 kts | 32° |
| 2026-04-28 15:57 | 54.71957 | 7.55696 | 41415 ft | 454 kts | 32° |
| 2026-04-28 15:58 | 54.77247 | 7.61672 | 41436 ft | 455 kts | 32° |
| 2026-04-28 15:58 | 54.82534 | 7.67663 | 41428 ft | 454 kts | 32° |
| 2026-04-28 15:59 | 54.87815 | 7.73666 | 41427 ft | 453 kts | 32° |
| 2026-04-28 15:59 | 54.93089 | 7.79681 | 41425 ft | 453 kts | 32° |
| 2026-04-28 16:00 | 54.98362 | 7.85712 | 41421 ft | 453 kts | 32° |
| 2026-04-28 16:00 | 55.03666 | 7.91529 | 41417 ft | 452 kts | 28° |
| 2026-04-28 16:01 | 55.09094 | 7.97013 | 41421 ft | 451 kts | 29° |
| 2026-04-28 16:01 | 55.14500 | 8.02558 | 41425 ft | 451 kts | 29° |
| 2026-04-28 16:02 | 55.19904 | 8.08147 | 41429 ft | 451 kts | 29° |
| 2026-04-28 16:02 | 55.25295 | 8.13750 | 41434 ft | 451 kts | 29° |
| 2026-04-28 16:03 | 55.30690 | 8.19378 | 41437 ft | 450 kts | 29° |
| 2026-04-28 16:03 | 55.36068 | 8.25006 | 41427 ft | 450 kts | 29° |
| 2026-04-28 16:04 | 55.41439 | 8.30645 | 41429 ft | 450 kts | 29° |
| 2026-04-28 16:04 | 55.46811 | 8.36304 | 41433 ft | 450 kts | 29° |
| 2026-04-28 16:05 | 55.52183 | 8.41981 | 41426 ft | 450 kts | 29° |
| 2026-04-28 16:05 | 55.57545 | 8.47666 | 41423 ft | 449 kts | 29° |
| 2026-04-28 16:06 | 55.62873 | 8.53332 | 41417 ft | 449 kts | 29° |
| 2026-04-28 16:06 | 55.68213 | 8.59031 | 41420 ft | 449 kts | 29° |
| 2026-04-28 16:07 | 55.70879 | 8.61883 | 41140 ft | 444 kts | 29° |
| 2026-04-28 16:07 | 55.73529 | 8.64722 | 40440 ft | 445 kts | 29° |
| 2026-04-28 16:07 | 55.78792 | 8.70374 | 38849 ft | 436 kts | 29° |
| 2026-04-28 16:08 | 55.81374 | 8.73155 | 37515 ft | 432 kts | 29° |
| 2026-04-28 16:08 | 55.83924 | 8.75904 | 36163 ft | 429 kts | 30° |
| 2026-04-28 16:08 | 55.86446 | 8.78627 | 34858 ft | 425 kts | 30° |
| 2026-04-28 16:09 | 55.91420 | 8.84010 | 32065 ft | 415 kts | 30° |
| 2026-04-28 16:09 | 55.93887 | 8.86685 | 30364 ft | 416 kts | 30° |
| 2026-04-28 16:09 | 55.96367 | 8.89377 | 28697 ft | 421 kts | 30° |
| 2026-04-28 16:10 | 56.01420 | 8.94881 | 27871 ft | 421 kts | 30° |
| 2026-04-28 16:10 | 56.03914 | 8.97603 | 27600 ft | 418 kts | 30° |
| 2026-04-28 16:10 | 56.08837 | 9.02989 | 26753 ft | 408 kts | 30° |
| 2026-04-28 16:11 | 56.13484 | 9.08088 | 25485 ft | 399 kts | 31° |
| 2026-04-28 16:11 | 56.18137 | 9.13208 | 24210 ft | 391 kts | 31° |
| 2026-04-28 16:12 | 56.22729 | 9.18277 | 22860 ft | 381 kts | 30° |
| 2026-04-28 16:12 | 56.24985 | 9.20773 | 22236 ft | 377 kts | 30° |
| 2026-04-28 16:13 | 56.29389 | 9.25653 | 20927 ft | 368 kts | 30° |
| 2026-04-28 16:13 | 56.31543 | 9.28046 | 20299 ft | 366 kts | 30° |
| 2026-04-28 16:13 | 56.35871 | 9.32859 | 19034 ft | 366 kts | 30° |
| 2026-04-28 16:14 | 56.40201 | 9.37689 | 17652 ft | 363 kts | 30° |
| 2026-04-28 16:14 | 56.44471 | 9.42465 | 16326 ft | 357 kts | 30° |
| 2026-04-28 16:15 | 56.48675 | 9.47181 | 15002 ft | 353 kts | 30° |
| 2026-04-28 16:15 | 56.50752 | 9.49515 | 14322 ft | 351 kts | 30° |
| 2026-04-28 16:15 | 56.52818 | 9.51840 | 13605 ft | 348 kts | 30° |
| 2026-04-28 16:16 | 56.56894 | 9.56434 | 12261 ft | 341 kts | 30° |
| 2026-04-28 16:16 | 56.58875 | 9.58672 | 11649 ft | 338 kts | 30° |
| 2026-04-28 16:17 | 56.62671 | 9.62976 | 11332 ft | 304 kts | 30° |
| 2026-04-28 16:17 | 56.64421 | 9.64962 | 11194 ft | 289 kts | 30° |
| 2026-04-28 16:17 | 56.66082 | 9.66849 | 11064 ft | 275 kts | 30° |
| 2026-04-28 16:17 | 56.67670 | 9.68654 | 10924 ft | 263 kts | 30° |
| 2026-04-28 16:18 | 56.69186 | 9.70379 | 10808 ft | 251 kts | 30° |
| 2026-04-28 16:18 | 56.70656 | 9.72051 | 10663 ft | 248 kts | 30° |
| 2026-04-28 16:18 | 56.72117 | 9.73713 | 10554 ft | 248 kts | 30° |
| 2026-04-28 16:18 | 56.73576 | 9.75375 | 10382 ft | 248 kts | 30° |
| 2026-04-28 16:19 | 56.75091 | 9.77097 | 10251 ft | 263 kts | 30° |
| 2026-04-28 16:19 | 56.76649 | 9.78874 | 10100 ft | 262 kts | 30° |
| 2026-04-28 16:19 | 56.78198 | 9.80646 | 9549 ft | 264 kts | 30° |
| 2026-04-28 16:19 | 56.79756 | 9.82430 | 9080 ft | 264 kts | 30° |
| 2026-04-28 16:20 | 56.81309 | 9.84210 | 8723 ft | 262 kts | 30° |
| 2026-04-28 16:20 | 56.82853 | 9.85982 | 8375 ft | 261 kts | 30° |
| 2026-04-28 16:20 | 56.84390 | 9.87749 | 8021 ft | 260 kts | 30° |
| 2026-04-28 16:20 | 56.85902 | 9.89487 | 7703 ft | 259 kts | 30° |
| 2026-04-28 16:21 | 56.87428 | 9.91242 | 7355 ft | 258 kts | 30° |
| 2026-04-28 16:21 | 56.88943 | 9.92986 | 7021 ft | 257 kts | 30° |
| 2026-04-28 16:21 | 56.90471 | 9.94749 | 6672 ft | 256 kts | 31° |
| 2026-04-28 16:21 | 56.91951 | 9.96458 | 6326 ft | 255 kts | 31° |
| 2026-04-28 16:22 | 56.93447 | 9.98188 | 6012 ft | 254 kts | 31° |
| 2026-04-28 16:22 | 56.94946 | 9.99918 | 5682 ft | 254 kts | 31° |
| 2026-04-28 16:22 | 56.96438 | 10.01643 | 5351 ft | 254 kts | 31° |
| 2026-04-28 16:22 | 56.97932 | 10.03372 | 5033 ft | 253 kts | 31° |
| 2026-04-28 16:23 | 56.99418 | 10.05097 | 4737 ft | 252 kts | 31° |
| 2026-04-28 16:23 | 57.00886 | 10.06806 | 4406 ft | 248 kts | 30° |
| 2026-04-28 16:23 | 57.02343 | 10.08497 | 4097 ft | 247 kts | 30° |
| 2026-04-28 16:23 | 57.03798 | 10.10184 | 3780 ft | 247 kts | 30° |
| 2026-04-28 16:24 | 57.05217 | 10.11836 | 3621 ft | 234 kts | 31° |
| 2026-04-28 16:24 | 57.06538 | 10.13382 | 3376 ft | 216 kts | 30° |
| 2026-04-28 16:24 | 57.07762 | 10.14812 | 3110 ft | 202 kts | 30° |
| 2026-04-28 16:24 | 57.08921 | 10.16122 | 2910 ft | 187 kts | 26° |
| 2026-04-28 16:25 | 57.10142 | 10.16727 | 2845 ft | 183 kts | 354° |
| 2026-04-28 16:25 | 57.11219 | 10.15635 | 2787 ft | 182 kts | 308° |
| 2026-04-28 16:25 | 57.11505 | 10.13468 | 2621 ft | 176 kts | 266° |
| 2026-04-28 16:25 | 57.11251 | 10.11334 | 2455 ft | 169 kts | 261° |
| 2026-04-28 16:26 | 57.11028 | 10.09253 | 2262 ft | 164 kts | 266° |
| 2026-04-28 16:26 | 57.10911 | 10.07195 | 2111 ft | 156 kts | 271° |
| 2026-04-28 16:26 | 57.10799 | 10.05264 | 1945 ft | 148 kts | 268° |
| 2026-04-28 16:26 | 57.10674 | 10.03421 | 1756 ft | 145 kts | 266° |
| 2026-04-28 16:27 | 57.10556 | 10.01621 | 1563 ft | 138 kts | 269° |
| 2026-04-28 16:27 | 57.10446 | 9.99918 | 1374 ft | 131 kts | 268° |
| 2026-04-28 16:27 | 57.10233 | 9.96629 | 1032 ft | 129 kts | 266° |
| 2026-04-28 16:28 | 57.10106 | 9.95005 | 833 ft | 128 kts | 265° |
| 2026-04-28 16:28 | 57.10017 | 9.93934 | 695 ft | 127 kts | 268° |
| 2026-04-28 16:28 | 57.09900 | 9.91787 | 517 ft | 128 kts | 268° |
| 2026-04-28 16:28 | 57.09789 | 9.90178 | 314 ft | 125 kts | 266° |
| 2026-04-28 16:29 | 57.09589 | 9.86994 | 31 ft | 124 kts | 266° |
| 2026-04-28 16:29 | 57.09464 | 9.84812 | 26 ft | 43 kts | 262° |
| 2026-04-28 16:30 | 57.09441 | 9.84448 | 30 ft | 25 kts | 263° |
| 2026-04-28 16:30 | 57.09424 | 9.84305 | 30 ft | 2 kts | 219° |
| 2026-04-28 16:30 | 57.09402 | 9.84317 | 26 ft | 6 kts | 154° |
| 2026-04-28 16:30 | 57.09350 | 9.84376 | 27 ft | 11 kts | 146° |